Time;durP1;ratioP1;P1;durP2;ratioP2;P2;SDS_P1;SDS_P2;PMS_P1;PMS_P2;Temp;Humidity;BMP_temperature;BMP_pressure;BME280_temperature;BME280_humidity;BME280_pressure;Samples;Min_cycle;Max_cycle;Signal;HPM_P1;HPM_P2
2022/11/28 00:02:14;;;;;;;20.45;15.98;;;9.30;99.90;;;;;;5039944;28;20125;-69
2022/11/28 00:04:40;;;;;;;26.55;17.42;;;8.70;99.90;;;;;;5048645;28;20190;-69
2022/11/28 00:07:05;;;;;;;21.25;16.30;;;8.80;99.90;;;;;;5049052;28;20037;-69
2022/11/28 00:09:31;;;;;;;19.58;15.20;;;9.20;99.90;;;;;;5044059;28;20068;-69
2022/11/28 00:11:56;;;;;;;24.42;17.83;;;9.20;99.90;;;;;;5035362;28;20042;-68
2022/11/28 00:14:22;;;;;;;29.60;20.13;;;8.70;99.90;;;;;;5029402;28;20059;-69
2022/11/28 00:16:48;;;;;;;28.48;20.27;;;8.70;99.90;;;;;;5038080;28;20044;-69
2022/11/28 00:19:14;;;;;;;23.58;17.67;;;9.20;99.90;;;;;;5044591;28;20033;-69
2022/11/28 00:21:40;;;;;;;23.92;15.07;;;9.40;99.90;;;;;;5050331;28;20044;-69
2022/11/28 00:24:06;;;;;;;22.60;16.20;;;9.20;99.90;;;;;;5043326;28;20041;-69
2022/11/28 00:26:34;;;;;;;20.35;15.73;;;8.80;99.90;;;;;;5033296;28;20131;-69
2022/11/28 00:29:00;;;;;;;18.90;15.10;;;9.30;99.90;;;;;;5052389;28;20609;-69
2022/11/28 00:31:33;;;;;;;28.00;19.60;;;9.30;99.90;;;;;;5041921;28;20037;-69
2022/11/28 00:34:00;;;;;;;27.08;19.55;;;9.20;99.90;;;;;;5033247;28;20042;-69
2022/11/28 00:36:26;;;;;;;29.00;20.45;;;8.80;99.90;;;;;;5049496;28;20056;-68
2022/11/28 00:38:52;;;;;;;29.00;17.58;;;8.70;99.90;;;;;;5037517;28;20029;-68
2022/11/28 00:41:24;;;;;;;25.30;19.30;;;9.00;99.90;;;;;;5045371;28;20026;-68
2022/11/28 00:43:50;;;;;;;24.08;16.58;;;9.50;99.90;;;;;;5053064;28;20037;-68
2022/11/28 00:46:17;;;;;;;22.48;16.27;;;8.80;99.90;;;;;;5041270;28;20068;-69
2022/11/28 00:48:43;;;;;;;24.05;18.45;;;9.40;99.90;;;;;;5039119;28;20041;-68
2022/11/28 00:51:17;;;;;;;26.70;19.27;;;9.40;99.90;;;;;;5035870;28;20037;-69
2022/11/28 00:53:46;;;;;;;23.60;17.02;;;8.80;99.90;;;;;;5041742;28;20045;-69
2022/11/28 00:56:15;;;;;;;26.02;18.13;;;8.90;99.90;;;;;;5035193;28;20041;-68
2022/11/28 00:58:41;;;;;;;29.45;21.85;;;9.30;99.90;;;;;;5052224;28;20114;-69
2022/11/28 01:01:09;;;;;;;26.67;17.65;;;8.70;99.90;;;;;;5026708;28;20464;-68
2022/11/28 01:03:35;;;;;;;23.20;15.13;;;8.70;99.90;;;;;;5043348;28;20071;-68
2022/11/28 01:06:00;;;;;;;25.55;18.13;;;8.80;99.90;;;;;;5034953;28;20444;-69
2022/11/28 01:08:26;;;;;;;24.83;17.48;;;9.10;99.90;;;;;;5043217;28;20044;-68
2022/11/28 01:10:52;;;;;;;27.58;20.25;;;9.50;99.90;;;;;;5046411;28;20106;-69
2022/11/28 01:13:18;;;;;;;25.00;18.35;;;9.20;99.90;;;;;;5043270;28;20136;-69
2022/11/28 01:15:43;;;;;;;29.08;19.33;;;8.80;99.90;;;;;;5041274;28;20041;-69
2022/11/28 01:18:09;;;;;;;27.92;19.20;;;9.50;99.90;;;;;;5047929;28;20133;-69
2022/11/28 01:20:34;;;;;;;34.78;20.98;;;9.50;99.90;;;;;;5044503;28;20061;-69
2022/11/28 01:23:00;;;;;;;25.52;18.15;;;9.40;99.90;;;;;;5047425;28;20056;-70
2022/11/28 01:25:25;;;;;;;21.67;15.30;;;8.90;99.90;;;;;;5075294;28;20037;-68
2022/11/28 01:27:51;;;;;;;25.42;17.95;;;9.40;99.90;;;;;;5045593;28;20045;-69
2022/11/28 01:30:17;;;;;;;22.67;17.02;;;9.50;99.90;;;;;;5030000;28;20030;-70
2022/11/28 01:32:43;;;;;;;32.08;21.67;;;9.30;99.90;;;;;;5038182;28;20406;-69
2022/11/28 01:35:09;;;;;;;30.80;21.13;;;9.40;99.90;;;;;;5044761;28;20040;-69
2022/11/28 01:37:34;;;;;;;32.33;22.65;;;8.90;99.90;;;;;;5045989;28;20094;-69
2022/11/28 01:40:00;;;;;;;28.45;19.60;;;8.80;99.90;;;;;;5023529;28;20468;-68
2022/11/28 01:42:25;;;;;;;29.75;20.73;;;9.50;99.90;;;;;;5040027;28;20102;-68
2022/11/28 01:44:51;;;;;;;25.08;17.40;;;8.90;99.90;;;;;;5047495;28;20566;-69
2022/11/28 01:47:25;;;;;;;26.30;19.17;;;9.00;99.90;;;;;;5035998;28;20378;-69
2022/11/28 01:49:52;;;;;;;23.20;17.52;;;9.10;99.90;;;;;;5046940;28;20123;-69
2022/11/28 01:52:20;;;;;;;31.02;21.38;;;9.60;99.90;;;;;;5034991;28;20437;-69
2022/11/28 01:54:51;;;;;;;37.63;24.60;;;9.00;99.90;;;;;;5049094;28;20048;-69
2022/11/28 01:57:21;;;;;;;32.03;22.05;;;8.90;99.90;;;;;;5034594;28;20030;-69
2022/11/28 01:59:58;;;;;;;31.85;22.80;;;9.50;99.90;;;;;;5039512;28;20482;-69
2022/11/28 02:02:51;;;;;;;29.20;21.50;;;8.90;99.90;;;;;;5026297;28;20072;-69
2022/11/28 02:05:18;;;;;;;29.17;21.27;;;9.60;99.90;;;;;;5043929;28;20040;-69
2022/11/28 02:07:45;;;;;;;27.80;18.67;;;9.50;99.90;;;;;;5074795;28;20448;-69
2022/11/28 02:10:15;;;;;;;30.05;20.27;;;9.50;99.90;;;;;;5049831;28;20040;-69
2022/11/28 02:13:05;;;;;;;35.83;23.88;;;8.90;99.90;;;;;;5047891;28;20160;-69
2022/11/28 02:15:44;;;;;;;31.00;22.00;;;9.60;99.90;;;;;;5043853;28;20049;-69
2022/11/28 02:18:36;;;;;;;42.35;25.20;;;8.80;99.90;;;;;;5042734;28;20048;-69
2022/11/28 02:21:15;;;;;;;26.73;19.70;;;9.50;99.90;;;;;;5048956;28;20071;-69
2022/11/28 02:24:07;;;;;;;27.00;17.60;;;9.10;99.90;;;;;;5034099;28;20111;-69
2022/11/28 02:27:22;;;;;;;26.92;19.15;;;9.50;99.90;;;;;;5036001;28;20084;-68
2022/11/28 02:30:11;;;;;;;26.92;19.67;;;9.70;99.90;;;;;;4993290;28;20038;-69
2022/11/28 02:33:12;;;;;;;32.35;22.13;;;9.60;99.90;;;;;;5031528;28;20033;-68
2022/11/28 02:36:16;;;;;;;29.05;21.23;;;9.30;99.90;;;;;;5033870;28;20045;-69
2022/11/28 02:39:06;;;;;;;36.50;24.23;;;9.70;99.90;;;;;;5062455;28;20112;-68
2022/11/28 02:41:40;;;;;;;29.67;21.42;;;9.10;99.90;;;;;;5046073;28;20124;-70
2022/11/28 02:44:21;;;;;;;24.25;18.33;;;8.90;99.90;;;;;;5075942;28;20588;-69
2022/11/28 02:47:06;;;;;;;28.95;20.08;;;9.60;99.90;;;;;;5035993;28;20124;-69
2022/11/28 02:49:36;;;;;;;31.70;21.67;;;9.10;99.90;;;;;;5050742;28;20041;-69
2022/11/28 02:52:11;;;;;;;42.88;24.90;;;9.40;99.90;;;;;;5049149;28;20075;-69
2022/11/28 02:54:38;;;;;;;39.90;24.75;;;9.30;99.90;;;;;;5033765;28;20141;-69
2022/11/28 02:57:04;;;;;;;35.58;23.10;;;9.00;99.90;;;;;;5021029;28;20507;-68
2022/11/28 02:59:36;;;;;;;39.85;24.52;;;9.90;99.90;;;;;;5050104;28;20045;-68
2022/11/28 03:02:03;;;;;;;30.48;21.00;;;9.20;99.90;;;;;;5047113;28;20036;-68
2022/11/28 03:04:48;;;;;;;32.15;20.15;;;9.40;99.90;;;;;;5036491;28;20037;-68
2022/11/28 03:07:36;;;;;;;27.35;19.23;;;9.90;99.90;;;;;;5020652;28;20456;-69
2022/11/28 03:10:19;;;;;;;23.02;16.90;;;9.30;99.90;;;;;;5041796;28;20049;-69
2022/11/28 03:13:04;;;;;;;27.02;19.13;;;9.30;99.90;;;;;;5044769;28;20061;-69
2022/11/28 03:15:44;;;;;;;29.77;20.88;;;10.00;99.90;;;;;;5053744;28;20817;-69
2022/11/28 03:18:17;;;;;;;32.15;21.30;;;9.90;99.90;;;;;;5033512;28;20049;-69
2022/11/28 03:20:47;;;;;;;34.22;21.83;;;9.90;99.90;;;;;;5047695;28;20044;-69
2022/11/28 03:23:18;;;;;;;29.17;21.20;;;9.30;99.90;;;;;;5042528;28;20047;-69
2022/11/28 03:25:54;;;;;;;20.70;16.02;;;10.10;99.90;;;;;;5049824;28;20041;-69
2022/11/28 03:28:30;;;;;;;31.45;21.45;;;9.40;99.90;;;;;;5035113;28;20037;-69
2022/11/28 03:31:11;;;;;;;27.25;19.08;;;9.60;99.90;;;;;;5045300;28;20045;-69
2022/11/28 03:33:40;;;;;;;29.30;19.50;;;9.30;99.90;;;;;;5035250;28;20120;-68
2022/11/28 03:36:20;;;;;;;32.22;22.20;;;10.00;99.90;;;;;;5036154;28;20104;-69
2022/11/28 03:38:50;;;;;;;32.17;21.42;;;10.20;99.90;;;;;;5030236;28;20120;-68
2022/11/28 03:41:23;;;;;;;30.35;21.55;;;9.60;99.90;;;;;;5037968;28;20060;-69
2022/11/28 03:43:52;;;;;;;32.00;21.50;;;9.90;99.90;;;;;;5062960;28;20041;-69
2022/11/28 03:46:21;;;;;;;29.77;21.20;;;9.50;99.90;;;;;;5014014;28;20083;-68
2022/11/28 03:48:52;;;;;;;29.05;20.55;;;9.80;99.90;;;;;;5049710;28;20045;-69
2022/11/28 03:51:24;;;;;;;21.90;16.25;;;10.00;99.90;;;;;;5048773;28;20041;-70
2022/11/28 03:54:07;;;;;;;19.70;14.65;;;10.10;99.90;;;;;;5034476;28;20034;-69
2022/11/28 03:57:07;;;;;;;22.70;16.63;;;9.80;99.90;;;;;;5032079;28;20045;-68
2022/11/28 03:59:43;;;;;;;25.90;18.13;;;9.70;99.90;;;;;;5041696;28;20116;-69
2022/11/28 04:02:27;;;;;;;18.95;15.18;;;10.30;99.90;;;;;;5046984;28;20112;-68
2022/11/28 04:05:16;;;;;;;20.25;15.40;;;10.30;99.90;;;;;;5039328;28;20557;-68
2022/11/28 04:07:51;;;;;;;25.38;17.55;;;10.50;99.90;;;;;;5049129;28;20052;-68
2022/11/28 04:10:35;;;;;;;30.65;20.15;;;10.10;99.90;;;;;;5053617;28;20044;-68
2022/11/28 04:13:20;;;;;;;28.17;19.35;;;10.40;99.90;;;;;;5041401;28;20056;-68
2022/11/28 04:15:51;;;;;;;28.65;19.98;;;10.50;99.90;;;;;;5050248;28;20033;-69
2022/11/28 04:18:29;;;;;;;18.60;13.30;;;10.40;99.90;;;;;;5036900;28;20029;-68
2022/11/28 04:21:10;;;;;;;25.25;16.35;;;9.90;99.90;;;;;;5051817;28;20033;-68
2022/11/28 04:23:38;;;;;;;18.98;14.88;;;10.60;99.90;;;;;;5044417;28;20041;-68
2022/11/28 04:26:10;;;;;;;22.42;15.30;;;10.10;99.90;;;;;;5052860;28;20135;-68
2022/11/28 04:28:38;;;;;;;22.45;15.35;;;10.00;99.90;;;;;;5053462;28;20119;-69
2022/11/28 04:31:05;;;;;;;27.52;17.20;;;10.60;99.90;;;;;;5047534;28;20048;-70
2022/11/28 04:33:33;;;;;;;40.03;21.50;;;9.70;99.90;;;;;;5047894;28;20049;-68
2022/11/28 04:36:01;;;;;;;31.30;18.65;;;10.10;99.90;;;;;;5042042;28;20060;-68
2022/11/28 04:38:28;;;;;;;35.05;19.88;;;10.50;99.90;;;;;;5053690;28;20128;-68
2022/11/28 04:41:03;;;;;;;36.28;20.08;;;9.90;99.90;;;;;;5052450;28;20478;-69
2022/11/28 04:43:34;;;;;;;36.30;19.58;;;9.80;99.90;;;;;;5042177;28;20047;-68
2022/11/28 04:46:06;;;;;;;32.25;17.63;;;10.60;99.90;;;;;;5035554;28;20042;-67
2022/11/28 04:48:32;;;;;;;28.45;15.70;;;10.00;99.90;;;;;;5041446;28;20581;-68
2022/11/28 04:51:00;;;;;;;23.40;15.32;;;10.60;99.90;;;;;;5038231;28;20090;-69
2022/11/28 04:54:05;;;;;;;31.80;17.05;;;10.60;99.90;;;;;;5025479;28;20542;-68
2022/11/28 04:56:37;;;;;;;23.90;15.07;;;10.40;99.90;;;;;;5041348;28;20021;-68
2022/11/28 04:59:05;;;;;;;31.05;16.90;;;9.80;99.90;;;;;;5033365;28;20041;-68
2022/11/28 05:01:32;;;;;;;21.73;14.98;;;9.80;99.90;;;;;;5046665;28;20033;-68
2022/11/28 05:03:59;;;;;;;21.77;14.20;;;10.70;99.90;;;;;;5044455;28;20041;-69
2022/11/28 05:06:27;;;;;;;32.47;17.15;;;9.90;99.90;;;;;;5032832;28;20045;-68
2022/11/28 05:08:52;;;;;;;24.15;15.20;;;10.10;99.90;;;;;;5044543;28;20514;-68
2022/11/28 05:11:18;;;;;;;24.65;15.90;;;10.20;99.90;;;;;;5052782;28;20052;-69
2022/11/28 05:13:44;;;;;;;40.92;18.92;;;10.60;99.90;;;;;;5039380;28;20048;-69
2022/11/28 05:16:11;;;;;;;32.42;18.42;;;10.40;99.90;;;;;;5051976;28;20029;-69
2022/11/28 05:18:37;;;;;;;30.52;17.00;;;9.90;99.90;;;;;;5046339;28;20042;-68
2022/11/28 05:21:06;;;;;;;22.85;14.25;;;10.50;99.90;;;;;;5034773;28;20424;-69
2022/11/28 05:23:32;;;;;;;20.33;13.05;;;10.20;99.90;;;;;;5043428;28;20037;-69
2022/11/28 05:25:58;;;;;;;22.38;14.13;;;9.80;99.90;;;;;;5032728;28;20043;-68
2022/11/28 05:28:23;;;;;;;20.27;12.40;;;10.60;99.90;;;;;;5038387;28;20033;-69
2022/11/28 05:30:57;;;;;;;23.27;13.95;;;10.30;99.90;;;;;;5045155;28;20045;-69
2022/11/28 05:33:22;;;;;;;24.55;14.52;;;10.00;99.90;;;;;;5045367;28;20090;-69
2022/11/28 05:35:48;;;;;;;20.77;12.60;;;10.40;99.90;;;;;;5051887;28;20037;-69
2022/11/28 05:38:13;;;;;;;19.42;12.98;;;10.60;99.90;;;;;;5042694;28;20037;-69
2022/11/28 05:40:43;;;;;;;26.33;16.25;;;10.70;99.90;;;;;;5033304;28;20041;-70
2022/11/28 05:43:11;;;;;;;32.13;17.20;;;10.00;99.90;;;;;;5032611;28;20529;-69
2022/11/28 05:45:44;;;;;;;33.03;17.30;;;10.40;99.90;;;;;;5049095;28;20045;-68
2022/11/28 05:48:10;;;;;;;49.45;18.98;;;10.70;99.90;;;;;;5048321;28;20094;-69
2022/11/28 05:50:38;;;;;;;24.73;14.13;;;11.00;99.90;;;;;;5077374;28;20037;-69
2022/11/28 05:53:04;;;;;;;23.23;13.23;;;10.50;99.90;;;;;;5050523;28;20051;-69
2022/11/28 05:55:30;;;;;;;19.13;12.43;;;10.20;99.90;;;;;;5032882;28;20490;-69
2022/11/28 05:57:55;;;;;;;21.10;12.73;;;10.20;99.90;;;;;;5046530;28;20037;-69
2022/11/28 06:00:21;;;;;;;23.00;12.98;;;11.20;99.90;;;;;;5050572;28;20163;-69
2022/11/28 06:02:47;;;;;;;15.68;10.73;;;10.90;99.90;;;;;;5039990;28;20094;-69
2022/11/28 06:05:13;;;;;;;14.15;10.20;;;10.50;99.90;;;;;;5032340;28;20040;-69
2022/11/28 06:07:38;;;;;;;16.17;10.27;;;11.30;99.90;;;;;;5038394;28;20073;-69
2022/11/28 06:10:04;;;;;;;14.75;10.55;;;11.20;99.90;;;;;;5032279;28;20037;-68
2022/11/28 06:12:30;;;;;;;15.82;10.80;;;11.30;99.90;;;;;;5031322;28;20374;-69
2022/11/28 06:14:55;;;;;;;12.32;8.85;;;11.40;99.90;;;;;;5020345;28;20037;-70
2022/11/28 06:17:21;;;;;;;18.02;11.18;;;10.40;99.90;;;;;;5047149;28;20564;-69
2022/11/28 06:19:46;;;;;;;20.00;10.90;;;11.30;99.90;;;;;;5045829;28;20505;-69
2022/11/28 06:22:12;;;;;;;22.75;11.75;;;10.40;99.90;;;;;;5048003;28;20029;-68
2022/11/28 06:24:37;;;;;;;10.30;7.82;;;11.20;99.90;;;;;;5051416;28;20040;-68
2022/11/28 06:27:03;;;;;;;14.00;8.38;;;11.20;99.90;;;;;;5051201;28;20445;-68
2022/11/28 06:29:29;;;;;;;18.20;10.35;;;10.70;99.90;;;;;;5042164;28;20043;-68
2022/11/28 06:31:55;;;;;;;15.40;8.98;;;10.70;99.90;;;;;;5025076;28;20033;-68
2022/11/28 06:34:23;;;;;;;16.95;9.35;;;11.50;99.90;;;;;;5038351;28;20116;-68
2022/11/28 06:36:49;;;;;;;16.10;9.52;;;11.30;99.90;;;;;;5047702;28;20124;-69
2022/11/28 06:39:16;;;;;;;15.20;9.68;;;11.30;99.90;;;;;;5043992;28;20033;-69
2022/11/28 06:41:42;;;;;;;16.98;11.13;;;11.30;99.90;;;;;;5037126;28;20037;-69
2022/11/28 06:44:12;;;;;;;17.10;10.63;;;11.70;99.90;;;;;;5037529;28;20040;-69
2022/11/28 06:46:38;;;;;;;19.00;12.18;;;11.70;99.90;;;;;;5038898;28;20131;-69
2022/11/28 06:49:03;;;;;;;14.40;10.88;;;10.80;99.90;;;;;;5039049;28;20119;-68
2022/11/28 06:51:29;;;;;;;21.83;12.85;;;10.80;99.90;;;;;;5044409;28;20069;-69
2022/11/28 06:53:55;;;;;;;35.55;18.70;;;11.20;99.90;;;;;;5040677;28;20033;-69
2022/11/28 06:56:21;;;;;;;35.97;19.15;;;11.70;99.90;;;;;;5041991;28;20087;-69
2022/11/28 06:58:51;;;;;;;34.42;18.77;;;11.00;99.90;;;;;;5041102;28;21344;-69
2022/11/28 07:01:19;;;;;;;37.92;20.13;;;10.70;99.90;;;;;;5035401;28;20120;-71
2022/11/28 07:03:46;;;;;;;44.42;22.33;;;10.70;99.90;;;;;;5039959;28;20045;-69
2022/11/28 07:06:13;;;;;;;40.53;21.75;;;11.60;99.90;;;;;;5044355;28;20059;-69
2022/11/28 07:08:39;;;;;;;20.80;13.40;;;11.20;99.90;;;;;;5047539;28;20094;-69
2022/11/28 07:11:14;;;;;;;41.45;19.20;;;11.80;99.90;;;;;;5030267;28;20551;-70
2022/11/28 07:13:40;;;;;;;31.77;16.70;;;11.70;99.90;;;;;;5039571;28;20057;-70
2022/11/28 07:16:06;;;;;;;25.08;15.38;;;11.90;99.90;;;;;;5038074;28;20032;-70
2022/11/28 07:18:33;;;;;;;32.40;17.85;;;11.80;99.90;;;;;;5037622;28;20402;-70
2022/11/28 07:20:58;;;;;;;23.77;15.80;;;10.80;99.90;;;;;;5039836;28;20037;-70
2022/11/28 07:23:25;;;;;;;24.42;14.85;;;11.90;99.90;;;;;;5031942;28;20040;-71
2022/11/28 07:25:50;;;;;;;19.92;12.10;;;11.90;99.90;;;;;;5041807;28;21656;-75
2022/11/28 07:28:16;;;;;;;26.13;15.20;;;11.20;99.90;;;;;;5041086;28;20040;-71
2022/11/28 07:30:41;;;;;;;20.45;13.57;;;10.90;99.90;;;;;;5043147;28;20258;-71
2022/11/28 07:33:07;;;;;;;26.13;16.42;;;12.00;99.90;;;;;;5048244;28;20033;-71
2022/11/28 07:35:33;;;;;;;38.50;19.48;;;11.90;99.90;;;;;;5046725;28;20037;-71
2022/11/28 07:37:59;;;;;;;35.72;19.58;;;11.80;99.90;;;;;;5047746;28;20394;-71
2022/11/28 07:40:24;;;;;;;32.20;18.95;;;12.10;99.90;;;;;;5037373;28;20041;-71
2022/11/28 07:42:50;;;;;;;32.95;16.85;;;12.00;99.90;;;;;;5040531;28;20040;-71
2022/11/28 07:45:15;;;;;;;30.40;18.48;;;11.30;99.90;;;;;;5042349;28;20040;-71
2022/11/28 07:47:41;;;;;;;43.25;22.30;;;11.30;99.90;;;;;;5042843;28;20045;-71
2022/11/28 07:50:07;;;;;;;48.05;21.85;;;11.80;99.90;;;;;;5029313;28;20037;-70
2022/11/28 07:52:33;;;;;;;41.58;21.63;;;10.90;99.90;;;;;;5028162;28;20064;-70
2022/11/28 07:54:58;;;;;;;59.92;26.30;;;11.90;99.90;;;;;;5033680;28;20038;-70
2022/11/28 07:57:24;;;;;;;39.70;20.73;;;11.10;99.90;;;;;;5050892;28;20028;-70
2022/11/28 07:59:50;;;;;;;40.60;19.58;;;11.10;99.90;;;;;;5034638;28;20034;-71
2022/11/28 08:02:15;;;;;;;31.58;17.35;;;12.20;99.90;;;;;;5037949;28;20033;-70
2022/11/28 08:04:41;;;;;;;50.55;24.48;;;12.00;99.90;;;;;;5030119;28;20103;-70
2022/11/28 08:07:06;;;;;;;33.72;18.88;;;12.20;99.90;;;;;;5055903;28;20383;-69
2022/11/28 08:09:32;;;;;;;46.03;23.85;;;12.30;99.90;;;;;;5044896;28;20045;-70
2022/11/28 08:11:58;;;;;;;38.80;21.40;;;11.50;99.90;;;;;;5042216;28;20037;-70
2022/11/28 08:14:23;;;;;;;43.10;23.35;;;12.20;99.90;;;;;;5045283;28;20064;-70
2022/11/28 08:16:50;;;;;;;40.25;21.30;;;12.20;99.90;;;;;;5024410;28;20033;-70
2022/11/28 08:19:15;;;;;;;45.20;22.83;;;11.20;99.90;;;;;;5044298;28;20080;-70
2022/11/28 08:21:41;;;;;;;41.25;22.88;;;11.20;99.90;;;;;;5041216;28;20047;-70
2022/11/28 08:24:07;;;;;;;46.50;21.52;;;11.20;99.90;;;;;;5037960;28;20042;-69
2022/11/28 08:26:33;;;;;;;49.55;24.33;;;11.90;99.90;;;;;;5046226;28;20050;-71
2022/11/28 08:29:01;;;;;;;43.35;22.35;;;11.90;99.90;;;;;;5066822;28;20486;-69
2022/11/28 08:31:35;;;;;;;38.35;21.00;;;11.30;99.90;;;;;;5044100;28;20073;-70
2022/11/28 08:34:04;;;;;;;49.10;25.02;;;12.20;99.90;;;;;;5045980;28;20158;-69
2022/11/28 08:36:30;;;;;;;70.95;27.77;;;12.10;99.90;;;;;;5026616;28;20083;-71
2022/11/28 08:38:58;;;;;;;79.78;29.38;;;12.60;99.90;;;;;;5036729;28;20063;-71
2022/11/28 08:41:24;;;;;;;69.53;27.58;;;12.30;99.90;;;;;;5044850;28;20033;-71
2022/11/28 08:43:50;;;;;;;78.47;27.67;;;12.70;99.90;;;;;;5040785;28;20039;-70
2022/11/28 08:46:19;;;;;;;57.22;25.17;;;11.40;99.90;;;;;;5043713;28;20041;-70
2022/11/28 08:48:46;;;;;;;42.47;19.15;;;11.90;99.90;;;;;;5044089;28;20044;-70
2022/11/28 08:51:14;;;;;;;41.83;18.98;;;11.70;99.90;;;;;;5064966;28;20120;-70
2022/11/28 08:53:40;;;;;;;42.88;19.02;;;12.50;99.90;;;;;;5042009;28;20041;-70
2022/11/28 08:56:06;;;;;;;44.35;20.27;;;12.60;99.90;;;;;;5047932;28;20036;-70
2022/11/28 08:58:32;;;;;;;34.88;17.90;;;11.40;99.90;;;;;;5050806;28;20087;-71
2022/11/28 09:00:57;;;;;;;44.60;16.90;;;11.70;99.90;;;;;;5046595;28;20037;-71
2022/11/28 09:03:23;;;;;;;38.70;17.58;;;11.40;99.90;;;;;;5039670;28;20065;-70
2022/11/28 09:05:49;;;;;;;37.00;17.50;;;11.60;99.90;;;;;;5044998;28;20041;-71
2022/11/28 09:08:17;;;;;;;40.67;20.13;;;12.00;99.90;;;;;;5040524;28;20170;-70
2022/11/28 09:10:44;;;;;;;46.25;20.70;;;12.50;99.90;;;;;;5041162;28;20430;-70
2022/11/28 09:13:13;;;;;;;44.08;18.88;;;12.40;99.90;;;;;;5038593;28;20068;-77
2022/11/28 09:15:43;;;;;;;36.53;18.42;;;11.60;99.90;;;;;;5041616;28;20041;-70
2022/11/28 09:18:10;;;;;;;56.28;22.45;;;12.10;99.90;;;;;;5038357;28;20037;-71
2022/11/28 09:20:35;;;;;;;57.22;22.52;;;11.90;99.90;;;;;;5043046;28;20056;-71
2022/11/28 09:23:01;;;;;;;60.78;23.73;;;11.60;99.90;;;;;;5023925;28;20060;-71
2022/11/28 09:25:26;;;;;;;65.72;25.67;;;12.10;99.90;;;;;;5044555;28;20799;-71
2022/11/28 09:27:52;;;;;;;43.58;20.67;;;11.60;99.90;;;;;;5036650;28;20041;-71
2022/11/28 09:30:21;;;;;;;45.53;23.23;;;11.70;99.90;;;;;;5040079;28;20041;-70
2022/11/28 09:32:48;;;;;;;40.28;20.48;;;12.70;99.90;;;;;;5035067;28;20056;-70
2022/11/28 09:35:14;;;;;;;57.55;24.60;;;11.50;99.90;;;;;;5047047;28;20043;-71
2022/11/28 09:37:39;;;;;;;39.83;20.70;;;12.60;99.90;;;;;;5045656;28;20032;-72
2022/11/28 09:40:06;;;;;;;53.70;23.38;;;12.90;99.90;;;;;;5041844;28;20049;-70
2022/11/28 09:42:42;;;;;;;48.78;23.20;;;12.40;99.90;;;;;;5037386;28;20035;-78
2022/11/28 09:45:18;;;;;;;56.33;24.75;;;11.40;99.90;;;;;;5025660;28;20041;-77
2022/11/28 09:47:50;;;;;;;48.55;24.35;;;11.70;99.90;;;;;;5038838;28;20032;-71
2022/11/28 09:50:22;;;;;;;42.58;22.65;;;12.20;99.90;;;;;;5044224;28;20055;-71
2022/11/28 09:52:57;;;;;;;51.28;24.75;;;12.50;99.90;;;;;;5038367;28;20044;-72
2022/11/28 09:55:46;;;;;;;67.47;28.50;;;11.40;99.90;;;;;;5058933;28;20037;-71
2022/11/28 09:58:23;;;;;;;73.20;27.38;;;12.80;99.90;;;;;;5041227;28;20037;-71
2022/11/28 10:01:09;;;;;;;68.40;28.35;;;12.30;99.90;;;;;;5028457;28;20056;-70
2022/11/28 10:04:01;;;;;;;78.47;29.67;;;12.90;99.90;;;;;;5013201;28;20052;-70
2022/11/28 10:06:39;;;;;;;71.00;28.75;;;11.50;99.90;;;;;;5021623;28;20113;-71
2022/11/28 10:09:33;;;;;;;51.05;25.65;;;12.40;99.90;;;;;;5043643;28;20041;-70
2022/11/28 10:12:01;;;;;;;45.97;24.65;;;11.60;99.90;;;;;;5061356;28;20060;-71
2022/11/28 10:15:01;;;;;;;35.53;20.67;;;12.10;99.90;;;;;;5035368;28;20535;-71
2022/11/28 10:17:57;;;;;;;41.80;21.52;;;12.50;99.90;;;;;;5046223;28;20498;-71
2022/11/28 10:20:27;;;;;;;45.08;24.27;;;11.80;99.90;;;;;;5043518;28;20475;-71
2022/11/28 10:23:11;;;;;;;34.53;20.17;;;12.90;99.90;;;;;;5035931;28;20069;-70
2022/11/28 10:25:54;;;;;;;36.95;20.13;;;11.50;99.90;;;;;;5043693;28;20124;-70
2022/11/28 10:28:31;;;;;;;31.73;19.73;;;11.80;99.90;;;;;;5049659;28;20041;-71
2022/11/28 10:31:13;;;;;;;44.75;22.38;;;13.60;99.90;;;;;;5036858;28;20053;-71
2022/11/28 10:33:45;;;;;;;40.63;21.27;;;13.10;99.90;;;;;;5039980;28;20558;-71
2022/11/28 10:36:32;;;;;;;45.33;22.15;;;12.70;99.90;;;;;;5044543;28;20036;-70
2022/11/28 10:39:04;;;;;;;65.90;27.50;;;12.00;99.90;;;;;;5047934;28;20037;-71
2022/11/28 10:42:10;;;;;;;53.05;23.67;;;11.70;99.90;;;;;;5044067;28;20044;-71
2022/11/28 10:45:11;;;;;;;69.13;27.30;;;12.10;99.90;;;;;;5030680;28;20514;-71
2022/11/28 10:48:09;;;;;;;75.63;27.98;;;12.50;99.90;;;;;;5038109;28;20473;-70
2022/11/28 10:50:50;;;;;;;83.35;29.42;;;12.20;99.90;;;;;;5032372;28;20037;-70
2022/11/28 10:53:46;;;;;;;52.72;23.38;;;13.30;99.90;;;;;;5037741;28;20049;-70
2022/11/28 10:56:33;;;;;;;61.17;24.50;;;11.70;99.90;;;;;;5042610;28;20048;-70
2022/11/28 10:59:10;;;;;;;61.92;24.05;;;12.70;99.90;;;;;;5038172;28;20041;-70
2022/11/28 11:01:39;;;;;;;53.20;22.13;;;13.30;99.90;;;;;;5040210;28;20045;-70
2022/11/28 11:04:10;;;;;;;49.70;21.02;;;12.50;99.90;;;;;;5035678;28;20037;-70
2022/11/28 11:06:36;;;;;;;60.35;25.73;;;11.70;99.90;;;;;;5034371;28;20463;-70
2022/11/28 11:09:01;;;;;;;55.22;23.15;;;12.00;99.90;;;;;;5027849;28;20040;-71
2022/11/28 11:11:35;;;;;;;62.17;25.60;;;12.10;99.90;;;;;;5040498;28;20115;-70
2022/11/28 11:14:07;;;;;;;63.20;26.83;;;12.00;99.90;;;;;;5035894;28;20053;-71
2022/11/28 11:16:47;;;;;;;51.22;22.33;;;12.90;99.90;;;;;;5040406;28;20046;-71
2022/11/28 11:19:28;;;;;;;58.50;25.00;;;11.80;99.90;;;;;;5031525;28;20053;-71
2022/11/28 11:22:27;;;;;;;36.10;20.75;;;11.60;99.90;;;;;;5038092;28;20067;-71
2022/11/28 11:25:13;;;;;;;79.20;27.98;;;11.90;99.90;;;;;;5032871;28;20055;-71
2022/11/28 11:28:02;;;;;;;85.38;27.60;;;12.90;99.90;;;;;;5040693;28;20060;-71
2022/11/28 11:30:38;;;;;;;91.97;27.20;;;11.60;99.90;;;;;;5060437;28;20090;-70
2022/11/28 11:33:11;;;;;;;150.82;31.95;;;13.10;99.90;;;;;;5040828;28;20097;-70
2022/11/28 11:35:44;;;;;;;129.43;31.92;;;12.80;99.90;;;;;;5044464;28;20064;-70
2022/11/28 11:38:19;;;;;;;107.07;30.77;;;12.10;99.90;;;;;;5039804;28;20496;-71
2022/11/28 11:40:45;;;;;;;75.43;26.58;;;11.60;99.90;;;;;;5041383;28;20094;-71
2022/11/28 11:43:30;;;;;;;94.50;30.38;;;12.90;99.90;;;;;;5022918;28;20454;-70
2022/11/28 11:46:04;;;;;;;59.72;24.30;;;13.10;99.90;;;;;;5043253;28;20064;-70
2022/11/28 11:48:44;;;;;;;96.97;27.58;;;11.90;99.90;;;;;;5037172;28;20037;-70
2022/11/28 11:51:27;;;;;;;97.93;27.25;;;11.70;99.90;;;;;;5042683;28;20112;-70
2022/11/28 11:54:16;;;;;;;115.60;28.13;;;12.50;99.90;;;;;;5035763;28;20037;-70
2022/11/28 11:56:45;;;;;;;62.00;21.95;;;13.30;99.90;;;;;;5046180;28;20040;-70
2022/11/28 11:59:22;;;;;;;93.13;25.30;;;12.70;99.90;;;;;;5044375;28;20037;-71
2022/11/28 12:01:53;;;;;;;136.07;30.65;;;11.70;99.90;;;;;;5045093;28;20037;-70
2022/11/28 12:04:28;;;;;;;98.10;29.00;;;12.10;99.90;;;;;;5042596;28;20119;-71
2022/11/28 12:06:57;;;;;;;56.67;24.25;;;11.80;99.90;;;;;;5036268;28;20537;-70
2022/11/28 12:09:38;;;;;;;55.00;22.88;;;12.90;99.90;;;;;;5032876;28;20065;-71
2022/11/28 12:12:14;;;;;;;85.13;26.60;;;11.80;99.90;;;;;;5052286;28;20091;-71
2022/11/28 12:14:40;;;;;;;68.47;26.27;;;12.80;99.90;;;;;;5039893;28;20060;-71
2022/11/28 12:17:40;;;;;;;89.30;29.25;;;11.80;99.90;;;;;;5042310;28;20037;-71
2022/11/28 12:20:35;;;;;;;119.95;30.50;;;13.40;99.90;;;;;;5043757;28;20033;-71
2022/11/28 12:23:25;;;;;;;184.80;35.30;;;12.00;99.90;;;;;;5057352;28;20045;-71
2022/11/28 12:25:54;;;;;;;224.25;38.08;;;12.40;99.90;;;;;;5042468;28;20045;-70
2022/11/28 12:28:38;;;;;;;150.60;32.10;;;12.60;99.90;;;;;;5019344;28;20083;-70
2022/11/28 12:31:13;;;;;;;157.05;35.88;;;11.90;99.90;;;;;;5029187;28;20120;-70
2022/11/28 12:34:00;;;;;;;80.80;27.27;;;13.30;99.90;;;;;;5035470;28;20063;-71
2022/11/28 12:36:53;;;;;;;70.18;25.10;;;11.80;99.90;;;;;;5038613;28;20041;-70
2022/11/28 12:39:58;;;;;;;66.53;25.08;;;12.50;99.90;;;;;;5041949;28;20037;-70
2022/11/28 12:42:42;;;;;;;84.00;27.25;;;11.90;99.90;;;;;;5043544;28;20048;-71
2022/11/28 12:45:16;;;;;;;93.70;28.23;;;13.30;99.90;;;;;;5042339;28;20048;-71
2022/11/28 12:48:06;;;;;;;103.70;30.98;;;11.90;99.90;;;;;;5048103;28;20499;-70
2022/11/28 12:50:41;;;;;;;107.32;26.60;;;13.50;99.90;;;;;;5045870;28;20037;-71
2022/11/28 12:53:26;;;;;;;109.05;28.58;;;12.50;99.90;;;;;;5038808;28;20116;-70
2022/11/28 12:56:03;;;;;;;114.13;28.45;;;11.70;99.90;;;;;;5019415;28;20053;-71
2022/11/28 12:58:37;;;;;;;114.57;27.70;;;13.50;99.90;;;;;;5033457;28;20041;-71